sensor_id;sensor_type;location;lat;lon;timestamp;temperature;humidity
62363;DHT22;48396;48.426;1.500;2023-02-15T00:01:11;9.80;77.20
62363;DHT22;48396;48.426;1.500;2023-02-15T00:03:37;9.80;77.30
62363;DHT22;48396;48.426;1.500;2023-02-15T00:06:04;9.70;77.30
62363;DHT22;48396;48.426;1.500;2023-02-15T00:08:30;9.80;77.40
62363;DHT22;48396;48.426;1.500;2023-02-15T00:13:31;9.90;77.00
62363;DHT22;48396;48.426;1.500;2023-02-15T00:16:02;10.00;76.90
62363;DHT22;48396;48.426;1.500;2023-02-15T00:18:28;10.30;76.50
62363;DHT22;48396;48.426;1.500;2023-02-15T00:20:54;10.20;76.10
62363;DHT22;48396;48.426;1.500;2023-02-15T00:23:19;10.20;76.40
62363;DHT22;48396;48.426;1.500;2023-02-15T00:25:46;10.30;76.40
62363;DHT22;48396;48.426;1.500;2023-02-15T00:28:12;10.20;76.20
62363;DHT22;48396;48.426;1.500;2023-02-15T00:30:38;10.10;76.20
62363;DHT22;48396;48.426;1.500;2023-02-15T00:33:03;10.00;76.40
62363;DHT22;48396;48.426;1.500;2023-02-15T00:35:29;9.90;76.50
62363;DHT22;48396;48.426;1.500;2023-02-15T00:37:56;9.90;76.80
62363;DHT22;48396;48.426;1.500;2023-02-15T00:40:22;9.80;76.40
62363;DHT22;48396;48.426;1.500;2023-02-15T00:42:48;9.70;77.00
62363;DHT22;48396;48.426;1.500;2023-02-15T00:45:13;9.90;76.50
62363;DHT22;48396;48.426;1.500;2023-02-15T00:47:40;9.90;76.20
62363;DHT22;48396;48.426;1.500;2023-02-15T00:50:06;9.70;76.00
62363;DHT22;48396;48.426;1.500;2023-02-15T00:52:32;9.70;76.10
62363;DHT22;48396;48.426;1.500;2023-02-15T00:54:58;9.50;76.40
62363;DHT22;48396;48.426;1.500;2023-02-15T00:57:25;9.50;76.60
62363;DHT22;48396;48.426;1.500;2023-02-15T00:59:51;9.50;76.70
62363;DHT22;48396;48.426;1.500;2023-02-15T01:02:16;9.50;76.90
62363;DHT22;48396;48.426;1.500;2023-02-15T01:04:42;9.50;76.60
62363;DHT22;48396;48.426;1.500;2023-02-15T01:07:08;9.50;76.50
62363;DHT22;48396;48.426;1.500;2023-02-15T01:09:34;9.70;76.40
62363;DHT22;48396;48.426;1.500;2023-02-15T01:11:59;9.80;76.10
62363;DHT22;48396;48.426;1.500;2023-02-15T01:14:25;9.70;76.10
62363;DHT22;48396;48.426;1.500;2023-02-15T01:16:51;9.80;75.90
62363;DHT22;48396;48.426;1.500;2023-02-15T01:19:16;9.90;75.60
62363;DHT22;48396;48.426;1.500;2023-02-15T01:21:42;9.90;75.40
62363;DHT22;48396;48.426;1.500;2023-02-15T01:24:14;9.80;75.30
62363;DHT22;48396;48.426;1.500;2023-02-15T01:26:41;9.60;75.40
62363;DHT22;48396;48.426;1.500;2023-02-15T01:29:07;9.50;75.70
62363;DHT22;48396;48.426;1.500;2023-02-15T01:31:32;9.30;76.00
62363;DHT22;48396;48.426;1.500;2023-02-15T01:33:58;9.30;76.00
62363;DHT22;48396;48.426;1.500;2023-02-15T01:36:24;9.10;76.20
62363;DHT22;48396;48.426;1.500;2023-02-15T01:38:50;9.10;76.20
62363;DHT22;48396;48.426;1.500;2023-02-15T01:41:16;9.00;76.40
62363;DHT22;48396;48.426;1.500;2023-02-15T01:44:00;9.10;76.30
62363;DHT22;48396;48.426;1.500;2023-02-15T01:46:43;9.00;76.40
62363;DHT22;48396;48.426;1.500;2023-02-15T01:49:15;9.20;76.40
62363;DHT22;48396;48.426;1.500;2023-02-15T01:51:43;9.20;76.10
62363;DHT22;48396;48.426;1.500;2023-02-15T01:54:27;9.10;76.20
62363;DHT22;48396;48.426;1.500;2023-02-15T01:56:59;9.10;76.40
62363;DHT22;48396;48.426;1.500;2023-02-15T01:59:27;9.10;76.50
62363;DHT22;48396;48.426;1.500;2023-02-15T02:01:54;9.20;76.10
62363;DHT22;48396;48.426;1.500;2023-02-15T02:04:50;9.20;75.80
62363;DHT22;48396;48.426;1.500;2023-02-15T02:07:22;9.10;75.60
62363;DHT22;48396;48.426;1.500;2023-02-15T02:09:49;9.00;75.80
62363;DHT22;48396;48.426;1.500;2023-02-15T02:12:19;9.00;75.90
62363;DHT22;48396;48.426;1.500;2023-02-15T02:14:46;8.90;75.90
62363;DHT22;48396;48.426;1.500;2023-02-15T02:25:59;9.10;75.90
62363;DHT22;48396;48.426;1.500;2023-02-15T02:32:02;9.10;75.90
62363;DHT22;48396;48.426;1.500;2023-02-15T02:34:43;8.90;75.70
62363;DHT22;48396;48.426;1.500;2023-02-15T02:40:34;8.70;76.00
62363;DHT22;48396;48.426;1.500;2023-02-15T02:43:25;8.50;76.20
62363;DHT22;48396;48.426;1.500;2023-02-15T02:46:28;8.50;76.20
62363;DHT22;48396;48.426;1.500;2023-02-15T02:48:51;8.70;76.30
62363;DHT22;48396;48.426;1.500;2023-02-15T02:51:18;8.90;75.90
62363;DHT22;48396;48.426;1.500;2023-02-15T02:53:51;9.00;75.60
62363;DHT22;48396;48.426;1.500;2023-02-15T02:56:29;8.90;75.50
62363;DHT22;48396;48.426;1.500;2023-02-15T02:59:06;9.10;75.70
62363;DHT22;48396;48.426;1.500;2023-02-15T03:01:43;9.10;75.40
62363;DHT22;48396;48.426;1.500;2023-02-15T03:04:14;8.90;75.20
62363;DHT22;48396;48.426;1.500;2023-02-15T03:07:02;8.70;75.50
62363;DHT22;48396;48.426;1.500;2023-02-15T03:09:36;8.60;75.90
62363;DHT22;48396;48.426;1.500;2023-02-15T03:12:22;8.70;75.80
62363;DHT22;48396;48.426;1.500;2023-02-15T03:14:51;8.70;75.90
62363;DHT22;48396;48.426;1.500;2023-02-15T03:17:22;8.80;75.60
62363;DHT22;48396;48.426;1.500;2023-02-15T03:19:51;8.70;75.50
62363;DHT22;48396;48.426;1.500;2023-02-15T03:22:35;8.70;75.70
62363;DHT22;48396;48.426;1.500;2023-02-15T03:25:06;8.60;75.80
62363;DHT22;48396;48.426;1.500;2023-02-15T03:27:40;8.60;75.80
62363;DHT22;48396;48.426;1.500;2023-02-15T03:30:09;8.50;75.90
62363;DHT22;48396;48.426;1.500;2023-02-15T03:32:37;8.60;75.90
62363;DHT22;48396;48.426;1.500;2023-02-15T03:35:04;8.60;75.90
62363;DHT22;48396;48.426;1.500;2023-02-15T03:37:35;8.60;76.00
62363;DHT22;48396;48.426;1.500;2023-02-15T03:43:03;8.70;76.00
62363;DHT22;48396;48.426;1.500;2023-02-15T03:45:32;8.70;75.90
62363;DHT22;48396;48.426;1.500;2023-02-15T03:48:00;8.60;75.70
62363;DHT22;48396;48.426;1.500;2023-02-15T03:50:31;8.60;76.00
62363;DHT22;48396;48.426;1.500;2023-02-15T03:53:18;8.60;76.10
62363;DHT22;48396;48.426;1.500;2023-02-15T03:55:52;8.60;76.10
62363;DHT22;48396;48.426;1.500;2023-02-15T03:58:18;8.60;76.20
62363;DHT22;48396;48.426;1.500;2023-02-15T04:04:20;8.50;75.80
62363;DHT22;48396;48.426;1.500;2023-02-15T04:06:48;8.60;75.80
62363;DHT22;48396;48.426;1.500;2023-02-15T04:09:14;8.40;75.60
62363;DHT22;48396;48.426;1.500;2023-02-15T04:11:58;8.40;75.80
62363;DHT22;48396;48.426;1.500;2023-02-15T04:14:24;8.30;76.10
62363;DHT22;48396;48.426;1.500;2023-02-15T04:17:09;8.40;75.90
62363;DHT22;48396;48.426;1.500;2023-02-15T04:19:35;8.40;75.60
62363;DHT22;48396;48.426;1.500;2023-02-15T04:22:19;8.40;75.80
62363;DHT22;48396;48.426;1.500;2023-02-15T04:25:04;8.40;75.50
62363;DHT22;48396;48.426;1.500;2023-02-15T04:27:40;8.50;75.20
62363;DHT22;48396;48.426;1.500;2023-02-15T04:30:07;8.40;75.10
62363;DHT22;48396;48.426;1.500;2023-02-15T04:32:33;8.50;75.10
62363;DHT22;48396;48.426;1.500;2023-02-15T04:35:00;8.50;75.70
62363;DHT22;48396;48.426;1.500;2023-02-15T04:37:25;8.40;75.10
62363;DHT22;48396;48.426;1.500;2023-02-15T04:39:51;8.40;75.10
62363;DHT22;48396;48.426;1.500;2023-02-15T04:42:17;8.40;75.00
62363;DHT22;48396;48.426;1.500;2023-02-15T04:44:44;8.20;75.00
62363;DHT22;48396;48.426;1.500;2023-02-15T04:47:10;8.20;75.30
62363;DHT22;48396;48.426;1.500;2023-02-15T04:49:36;8.30;75.90
62363;DHT22;48396;48.426;1.500;2023-02-15T04:52:01;8.30;75.20
62363;DHT22;48396;48.426;1.500;2023-02-15T04:54:27;8.30;75.20
62363;DHT22;48396;48.426;1.500;2023-02-15T04:56:53;8.00;75.40
62363;DHT22;48396;48.426;1.500;2023-02-15T04:59:19;8.20;75.40
62363;DHT22;48396;48.426;1.500;2023-02-15T05:01:44;8.00;75.60
62363;DHT22;48396;48.426;1.500;2023-02-15T05:04:10;7.90;75.90
62363;DHT22;48396;48.426;1.500;2023-02-15T05:06:36;7.80;76.10
62363;DHT22;48396;48.426;1.500;2023-02-15T05:09:02;7.80;76.20
62363;DHT22;48396;48.426;1.500;2023-02-15T05:11:28;7.80;76.30
62363;DHT22;48396;48.426;1.500;2023-02-15T05:13:54;7.70;76.20
62363;DHT22;48396;48.426;1.500;2023-02-15T05:16:19;7.80;76.50
62363;DHT22;48396;48.426;1.500;2023-02-15T05:18:45;7.90;76.40
62363;DHT22;48396;48.426;1.500;2023-02-15T05:21:11;7.80;76.60
62363;DHT22;48396;48.426;1.500;2023-02-15T05:23:38;7.80;76.40
62363;DHT22;48396;48.426;1.500;2023-02-15T05:26:04;7.80;76.40
62363;DHT22;48396;48.426;1.500;2023-02-15T05:28:49;7.80;76.50
62363;DHT22;48396;48.426;1.500;2023-02-15T05:31:17;7.80;76.90
62363;DHT22;48396;48.426;1.500;2023-02-15T05:33:43;8.00;76.60
62363;DHT22;48396;48.426;1.500;2023-02-15T05:36:11;8.00;76.40
62363;DHT22;48396;48.426;1.500;2023-02-15T05:38:37;8.10;76.20
62363;DHT22;48396;48.426;1.500;2023-02-15T05:41:05;8.10;76.10
62363;DHT22;48396;48.426;1.500;2023-02-15T05:43:31;8.20;76.10
62363;DHT22;48396;48.426;1.500;2023-02-15T05:45:57;8.20;76.10
62363;DHT22;48396;48.426;1.500;2023-02-15T05:48:25;8.30;76.20
62363;DHT22;48396;48.426;1.500;2023-02-15T05:53:28;8.40;75.40
62363;DHT22;48396;48.426;1.500;2023-02-15T05:55:54;8.20;75.70
62363;DHT22;48396;48.426;1.500;2023-02-15T05:58:25;7.90;76.30
62363;DHT22;48396;48.426;1.500;2023-02-15T06:00:51;7.90;76.60
62363;DHT22;48396;48.426;1.500;2023-02-15T06:03:17;8.00;76.50
62363;DHT22;48396;48.426;1.500;2023-02-15T06:05:42;7.90;76.70
62363;DHT22;48396;48.426;1.500;2023-02-15T06:08:08;8.00;76.80
62363;DHT22;48396;48.426;1.500;2023-02-15T06:10:34;7.90;76.70
62363;DHT22;48396;48.426;1.500;2023-02-15T06:13:00;7.90;77.10
62363;DHT22;48396;48.426;1.500;2023-02-15T06:15:25;7.70;78.10
62363;DHT22;48396;48.426;1.500;2023-02-15T06:17:51;7.60;78.40
62363;DHT22;48396;48.426;1.500;2023-02-15T06:20:17;7.60;79.40
62363;DHT22;48396;48.426;1.500;2023-02-15T06:22:43;7.70;79.00
62363;DHT22;48396;48.426;1.500;2023-02-15T06:25:08;7.90;78.50
62363;DHT22;48396;48.426;1.500;2023-02-15T06:27:37;8.00;78.00
62363;DHT22;48396;48.426;1.500;2023-02-15T06:30:04;8.00;77.80
62363;DHT22;48396;48.426;1.500;2023-02-15T06:32:31;8.10;77.70
62363;DHT22;48396;48.426;1.500;2023-02-15T06:34:57;8.00;77.80
62363;DHT22;48396;48.426;1.500;2023-02-15T06:37:22;7.90;77.90
62363;DHT22;48396;48.426;1.500;2023-02-15T06:39:48;8.10;77.80
62363;DHT22;48396;48.426;1.500;2023-02-15T06:42:14;8.20;77.50
62363;DHT22;48396;48.426;1.500;2023-02-15T06:44:40;8.30;77.30
62363;DHT22;48396;48.426;1.500;2023-02-15T06:47:05;8.30;77.20
62363;DHT22;48396;48.426;1.500;2023-02-15T06:49:31;8.30;77.10
62363;DHT22;48396;48.426;1.500;2023-02-15T06:51:57;8.20;77.20
62363;DHT22;48396;48.426;1.500;2023-02-15T06:54:22;8.00;77.60
62363;DHT22;48396;48.426;1.500;2023-02-15T06:56:48;8.10;77.60
62363;DHT22;48396;48.426;1.500;2023-02-15T06:59:14;8.10;77.60
62363;DHT22;48396;48.426;1.500;2023-02-15T07:01:39;8.20;77.70
62363;DHT22;48396;48.426;1.500;2023-02-15T07:04:05;8.20;77.80
62363;DHT22;48396;48.426;1.500;2023-02-15T07:06:32;8.10;77.80
62363;DHT22;48396;48.426;1.500;2023-02-15T07:08:58;8.00;77.80
62363;DHT22;48396;48.426;1.500;2023-02-15T07:11:24;8.10;77.90
62363;DHT22;48396;48.426;1.500;2023-02-15T07:14:09;8.00;77.90
62363;DHT22;48396;48.426;1.500;2023-02-15T07:16:35;7.90;78.00
62363;DHT22;48396;48.426;1.500;2023-02-15T07:19:01;7.80;78.30
62363;DHT22;48396;48.426;1.500;2023-02-15T07:21:27;7.80;78.60
62363;DHT22;48396;48.426;1.500;2023-02-15T07:23:56;7.90;78.50
62363;DHT22;48396;48.426;1.500;2023-02-15T07:26:24;8.00;78.40
62363;DHT22;48396;48.426;1.500;2023-02-15T07:28:50;8.00;78.40
62363;DHT22;48396;48.426;1.500;2023-02-15T07:31:16;8.00;78.10
62363;DHT22;48396;48.426;1.500;2023-02-15T07:33:42;8.10;78.00
62363;DHT22;48396;48.426;1.500;2023-02-15T07:36:08;8.10;77.90
62363;DHT22;48396;48.426;1.500;2023-02-15T07:38:38;8.00;77.90
62363;DHT22;48396;48.426;1.500;2023-02-15T07:41:09;8.00;78.10
62363;DHT22;48396;48.426;1.500;2023-02-15T07:43:37;8.10;78.20
62363;DHT22;48396;48.426;1.500;2023-02-15T07:46:05;7.90;79.30
62363;DHT22;48396;48.426;1.500;2023-02-15T07:48:33;7.90;80.10
62363;DHT22;48396;48.426;1.500;2023-02-15T07:51:00;8.00;80.40
62363;DHT22;48396;48.426;1.500;2023-02-15T07:53:27;8.10;80.40
62363;DHT22;48396;48.426;1.500;2023-02-15T07:55:53;8.20;80.10
62363;DHT22;48396;48.426;1.500;2023-02-15T07:58:19;8.20;79.80
62363;DHT22;48396;48.426;1.500;2023-02-15T08:00:45;8.10;79.60
62363;DHT22;48396;48.426;1.500;2023-02-15T08:03:24;7.90;79.50
62363;DHT22;48396;48.426;1.500;2023-02-15T08:05:56;7.80;80.20
62363;DHT22;48396;48.426;1.500;2023-02-15T08:08:22;7.90;80.10
62363;DHT22;48396;48.426;1.500;2023-02-15T08:11:03;7.90;80.20
62363;DHT22;48396;48.426;1.500;2023-02-15T08:13:50;8.00;80.50
62363;DHT22;48396;48.426;1.500;2023-02-15T08:18:56;8.20;80.60
62363;DHT22;48396;48.426;1.500;2023-02-15T08:21:22;8.20;81.00
62363;DHT22;48396;48.426;1.500;2023-02-15T08:23:48;8.30;81.20
62363;DHT22;48396;48.426;1.500;2023-02-15T08:26:14;8.30;81.20
62363;DHT22;48396;48.426;1.500;2023-02-15T08:28:40;8.40;81.10
62363;DHT22;48396;48.426;1.500;2023-02-15T08:31:11;8.40;81.30
62363;DHT22;48396;48.426;1.500;2023-02-15T08:33:39;8.50;81.30
62363;DHT22;48396;48.426;1.500;2023-02-15T08:36:07;8.50;81.80
62363;DHT22;48396;48.426;1.500;2023-02-15T08:38:34;8.60;81.70
62363;DHT22;48396;48.426;1.500;2023-02-15T08:41:17;8.70;81.40
62363;DHT22;48396;48.426;1.500;2023-02-15T08:43:46;8.70;81.90
62363;DHT22;48396;48.426;1.500;2023-02-15T08:46:13;8.70;82.30
62363;DHT22;48396;48.426;1.500;2023-02-15T08:48:40;8.50;83.60
62363;DHT22;48396;48.426;1.500;2023-02-15T08:51:11;8.30;84.10
62363;DHT22;48396;48.426;1.500;2023-02-15T08:53:38;8.40;84.10
62363;DHT22;48396;48.426;1.500;2023-02-15T08:56:04;8.30;84.40
62363;DHT22;48396;48.426;1.500;2023-02-15T08:58:30;8.20;84.70
62363;DHT22;48396;48.426;1.500;2023-02-15T09:00:58;8.40;84.20
62363;DHT22;48396;48.426;1.500;2023-02-15T09:03:25;8.40;83.90
62363;DHT22;48396;48.426;1.500;2023-02-15T09:05:53;8.50;83.60
62363;DHT22;48396;48.426;1.500;2023-02-15T09:08:21;8.50;83.50
62363;DHT22;48396;48.426;1.500;2023-02-15T09:10:47;8.60;83.30
62363;DHT22;48396;48.426;1.500;2023-02-15T09:13:13;8.70;83.40
62363;DHT22;48396;48.426;1.500;2023-02-15T09:15:38;8.70;83.80
62363;DHT22;48396;48.426;1.500;2023-02-15T09:18:04;8.40;85.20
62363;DHT22;48396;48.426;1.500;2023-02-15T09:20:34;8.20;86.60
62363;DHT22;48396;48.426;1.500;2023-02-15T09:23:00;8.10;87.50
62363;DHT22;48396;48.426;1.500;2023-02-15T09:25:26;8.10;88.00
62363;DHT22;48396;48.426;1.500;2023-02-15T09:27:52;8.00;88.80
62363;DHT22;48396;48.426;1.500;2023-02-15T09:30:18;8.10;89.10
62363;DHT22;48396;48.426;1.500;2023-02-15T09:32:44;8.50;87.90
62363;DHT22;48396;48.426;1.500;2023-02-15T09:35:11;8.80;87.00
62363;DHT22;48396;48.426;1.500;2023-02-15T09:37:37;8.90;86.40
62363;DHT22;48396;48.426;1.500;2023-02-15T09:40:04;8.80;87.30
62363;DHT22;48396;48.426;1.500;2023-02-15T09:42:48;8.90;87.30
62363;DHT22;48396;48.426;1.500;2023-02-15T09:56:32;9.20;88.10
62363;DHT22;48396;48.426;1.500;2023-02-15T10:02:34;9.50;87.50
62363;DHT22;48396;48.426;1.500;2023-02-15T10:08:18;9.50;88.20
62363;DHT22;48396;48.426;1.500;2023-02-15T10:11:13;9.60;87.90
62363;DHT22;48396;48.426;1.500;2023-02-15T10:22:32;9.60;90.10
62363;DHT22;48396;48.426;1.500;2023-02-15T10:27:37;9.90;89.80
62363;DHT22;48396;48.426;1.500;2023-02-15T10:30:10;10.10;89.40
62363;DHT22;48396;48.426;1.500;2023-02-15T11:00:55;11.10;88.30
62363;DHT22;48396;48.426;1.500;2023-02-15T11:03:48;11.30;87.90
62363;DHT22;48396;48.426;1.500;2023-02-15T11:06:20;11.30;88.00
62363;DHT22;48396;48.426;1.500;2023-02-15T11:08:54;11.20;87.60
62363;DHT22;48396;48.426;1.500;2023-02-15T11:11:34;11.30;87.50
62363;DHT22;48396;48.426;1.500;2023-02-15T11:14:05;11.40;87.20
62363;DHT22;48396;48.426;1.500;2023-02-15T11:16:41;11.20;87.70
62363;DHT22;48396;48.426;1.500;2023-02-15T11:19:19;11.30;87.90
62363;DHT22;48396;48.426;1.500;2023-02-15T11:21:50;11.60;87.50
62363;DHT22;48396;48.426;1.500;2023-02-15T11:24:19;11.50;87.80
62363;DHT22;48396;48.426;1.500;2023-02-15T11:27:19;11.50;88.20
62363;DHT22;48396;48.426;1.500;2023-02-15T11:34:55;12.00;88.60
62363;DHT22;48396;48.426;1.500;2023-02-15T11:37:44;11.90;89.30
62363;DHT22;48396;48.426;1.500;2023-02-15T11:43:19;11.80;90.60
62363;DHT22;48396;48.426;1.500;2023-02-15T11:45:47;12.00;90.70
62363;DHT22;48396;48.426;1.500;2023-02-15T11:48:14;12.10;90.70
62363;DHT22;48396;48.426;1.500;2023-02-15T11:50:42;12.20;90.70
62363;DHT22;48396;48.426;1.500;2023-02-15T11:53:19;12.30;90.80
62363;DHT22;48396;48.426;1.500;2023-02-15T11:55:54;12.30;90.90
62363;DHT22;48396;48.426;1.500;2023-02-15T12:01:33;12.50;91.00
62363;DHT22;48396;48.426;1.500;2023-02-15T12:07:09;12.70;91.20
62363;DHT22;48396;48.426;1.500;2023-02-15T12:12:26;12.90;90.80
62363;DHT22;48396;48.426;1.500;2023-02-15T12:14:55;12.90;90.50
62363;DHT22;48396;48.426;1.500;2023-02-15T12:17:23;13.00;90.40
62363;DHT22;48396;48.426;1.500;2023-02-15T12:19:50;12.80;90.70
62363;DHT22;48396;48.426;1.500;2023-02-15T12:22:25;12.60;90.90
62363;DHT22;48396;48.426;1.500;2023-02-15T12:24:55;12.70;90.80
62363;DHT22;48396;48.426;1.500;2023-02-15T12:27:33;12.90;90.50
62363;DHT22;48396;48.426;1.500;2023-02-15T12:32:56;12.90;90.00
62363;DHT22;48396;48.426;1.500;2023-02-15T12:35:31;12.90;89.50
62363;DHT22;48396;48.426;1.500;2023-02-15T12:40:38;12.90;88.60
62363;DHT22;48396;48.426;1.500;2023-02-15T12:43:25;12.70;89.80
62363;DHT22;48396;48.426;1.500;2023-02-15T12:45:51;12.80;90.00
62363;DHT22;48396;48.426;1.500;2023-02-15T12:48:19;13.00;89.80
62363;DHT22;48396;48.426;1.500;2023-02-15T12:50:47;13.10;89.40
62363;DHT22;48396;48.426;1.500;2023-02-15T12:55:56;13.30;87.90
62363;DHT22;48396;48.426;1.500;2023-02-15T13:04:00;13.50;86.70
62363;DHT22;48396;48.426;1.500;2023-02-15T13:06:26;13.40;86.70
62363;DHT22;48396;48.426;1.500;2023-02-15T13:08:54;13.20;86.80
62363;DHT22;48396;48.426;1.500;2023-02-15T13:11:30;13.20;87.20
62363;DHT22;48396;48.426;1.500;2023-02-15T13:14:03;13.10;87.30
62363;DHT22;48396;48.426;1.500;2023-02-15T13:16:44;13.00;87.90
62363;DHT22;48396;48.426;1.500;2023-02-15T13:21:51;13.10;88.50
62363;DHT22;48396;48.426;1.500;2023-02-15T13:24:19;13.20;88.20
62363;DHT22;48396;48.426;1.500;2023-02-15T13:26:47;13.30;87.00
62363;DHT22;48396;48.426;1.500;2023-02-15T13:29:31;13.30;87.00
62363;DHT22;48396;48.426;1.500;2023-02-15T13:32:07;13.30;87.30
62363;DHT22;48396;48.426;1.500;2023-02-15T13:34:36;13.40;87.50
62363;DHT22;48396;48.426;1.500;2023-02-15T13:42:38;13.70;85.40
62363;DHT22;48396;48.426;1.500;2023-02-15T13:59:36;14.50;83.20
62363;DHT22;48396;48.426;1.500;2023-02-15T14:02:34;14.70;82.30
62363;DHT22;48396;48.426;1.500;2023-02-15T14:05:29;14.70;81.30
62363;DHT22;48396;48.426;1.500;2023-02-15T14:10:43;14.90;80.30
62363;DHT22;48396;48.426;1.500;2023-02-15T14:16:05;15.20;79.30
62363;DHT22;48396;48.426;1.500;2023-02-15T14:18:51;15.40;79.40
62363;DHT22;48396;48.426;1.500;2023-02-15T14:32:05;15.70;80.20
62363;DHT22;48396;48.426;1.500;2023-02-15T14:34:48;15.70;79.40
62363;DHT22;48396;48.426;1.500;2023-02-15T14:37:42;15.50;79.30
62363;DHT22;48396;48.426;1.500;2023-02-15T14:40:33;15.70;78.90
62363;DHT22;48396;48.426;1.500;2023-02-15T14:48:42;15.80;76.00
62363;DHT22;48396;48.426;1.500;2023-02-15T14:51:09;15.90;75.80
62363;DHT22;48396;48.426;1.500;2023-02-15T14:53:37;15.90;75.80
62363;DHT22;48396;48.426;1.500;2023-02-15T15:01:33;16.00;75.40
62363;DHT22;48396;48.426;1.500;2023-02-15T15:04:03;16.20;75.30
62363;DHT22;48396;48.426;1.500;2023-02-15T15:06:33;16.20;75.20
62363;DHT22;48396;48.426;1.500;2023-02-15T15:09:28;16.20;75.80
62363;DHT22;48396;48.426;1.500;2023-02-15T15:12:12;16.20;75.50
62363;DHT22;48396;48.426;1.500;2023-02-15T15:14:41;16.40;75.40
62363;DHT22;48396;48.426;1.500;2023-02-15T15:17:11;16.60;74.30
62363;DHT22;48396;48.426;1.500;2023-02-15T15:22:19;16.70;73.40
62363;DHT22;48396;48.426;1.500;2023-02-15T15:24:51;16.80;73.50
62363;DHT22;48396;48.426;1.500;2023-02-15T15:27:37;16.70;72.90
62363;DHT22;48396;48.426;1.500;2023-02-15T15:48:36;17.10;70.50
62363;DHT22;48396;48.426;1.500;2023-02-15T15:51:17;17.10;71.10
62363;DHT22;48396;48.426;1.500;2023-02-15T15:53:48;17.10;72.00
62363;DHT22;48396;48.426;1.500;2023-02-15T15:56:34;17.10;72.40
62363;DHT22;48396;48.426;1.500;2023-02-15T15:59:17;17.00;72.90
62363;DHT22;48396;48.426;1.500;2023-02-15T16:01:47;17.10;72.50
62363;DHT22;48396;48.426;1.500;2023-02-15T16:04:27;17.30;72.50
62363;DHT22;48396;48.426;1.500;2023-02-15T16:06:56;17.20;72.60
62363;DHT22;48396;48.426;1.500;2023-02-15T16:09:24;17.30;72.40
62363;DHT22;48396;48.426;1.500;2023-02-15T16:11:57;17.20;72.40
62363;DHT22;48396;48.426;1.500;2023-02-15T16:14:37;17.20;73.20
62363;DHT22;48396;48.426;1.500;2023-02-15T16:17:12;17.30;72.70
62363;DHT22;48396;48.426;1.500;2023-02-15T16:19:41;17.20;72.60
62363;DHT22;48396;48.426;1.500;2023-02-15T16:22:15;17.40;72.90
62363;DHT22;48396;48.426;1.500;2023-02-15T16:27:38;17.60;71.90
62363;DHT22;48396;48.426;1.500;2023-02-15T16:30:29;17.70;71.30
62363;DHT22;48396;48.426;1.500;2023-02-15T16:33:05;17.50;70.70
62363;DHT22;48396;48.426;1.500;2023-02-15T16:35:31;17.30;71.10
62363;DHT22;48396;48.426;1.500;2023-02-15T16:37:57;17.00;71.80
62363;DHT22;48396;48.426;1.500;2023-02-15T16:42:52;16.90;72.30
62363;DHT22;48396;48.426;1.500;2023-02-15T16:45:21;16.80;72.60
62363;DHT22;48396;48.426;1.500;2023-02-15T16:47:51;16.60;72.80
62363;DHT22;48396;48.426;1.500;2023-02-15T16:50:31;16.60;73.00
62363;DHT22;48396;48.426;1.500;2023-02-15T16:52:58;16.50;72.60
62363;DHT22;48396;48.426;1.500;2023-02-15T16:55:29;16.60;72.70
62363;DHT22;48396;48.426;1.500;2023-02-15T16:58:00;16.60;72.50
62363;DHT22;48396;48.426;1.500;2023-02-15T17:00:31;16.40;72.70
62363;DHT22;48396;48.426;1.500;2023-02-15T17:03:12;16.40;72.70
62363;DHT22;48396;48.426;1.500;2023-02-15T17:05:55;16.40;72.70
62363;DHT22;48396;48.426;1.500;2023-02-15T17:11:20;16.30;72.40
62363;DHT22;48396;48.426;1.500;2023-02-15T17:16:35;16.10;72.90
62363;DHT22;48396;48.426;1.500;2023-02-15T17:19:12;15.60;73.60
62363;DHT22;48396;48.426;1.500;2023-02-15T17:22:04;15.40;74.20
62363;DHT22;48396;48.426;1.500;2023-02-15T17:24:38;15.40;74.40
62363;DHT22;48396;48.426;1.500;2023-02-15T17:27:23;15.10;74.80
62363;DHT22;48396;48.426;1.500;2023-02-15T17:29:50;15.30;74.50
62363;DHT22;48396;48.426;1.500;2023-02-15T17:32:24;15.30;73.90
62363;DHT22;48396;48.426;1.500;2023-02-15T17:37:45;15.30;73.70
62363;DHT22;48396;48.426;1.500;2023-02-15T17:40:21;15.30;73.70
62363;DHT22;48396;48.426;1.500;2023-02-15T17:42:47;15.30;73.80
62363;DHT22;48396;48.426;1.500;2023-02-15T17:45:14;15.10;73.70
62363;DHT22;48396;48.426;1.500;2023-02-15T17:47:40;14.90;74.30
62363;DHT22;48396;48.426;1.500;2023-02-15T17:50:10;14.90;74.50
62363;DHT22;48396;48.426;1.500;2023-02-15T17:52:41;14.90;74.40
62363;DHT22;48396;48.426;1.500;2023-02-15T17:55:15;14.60;75.00
62363;DHT22;48396;48.426;1.500;2023-02-15T17:58:01;14.60;75.20
62363;DHT22;48396;48.426;1.500;2023-02-15T18:00:27;14.60;75.60
62363;DHT22;48396;48.426;1.500;2023-02-15T18:03:12;14.60;75.00
62363;DHT22;48396;48.426;1.500;2023-02-15T18:05:57;14.40;75.60
62363;DHT22;48396;48.426;1.500;2023-02-15T18:08:41;14.20;76.00
62363;DHT22;48396;48.426;1.500;2023-02-15T18:11:26;14.30;75.80
62363;DHT22;48396;48.426;1.500;2023-02-15T18:14:09;14.40;75.60
62363;DHT22;48396;48.426;1.500;2023-02-15T18:16:40;14.40;75.50
62363;DHT22;48396;48.426;1.500;2023-02-15T18:19:26;14.50;75.20
62363;DHT22;48396;48.426;1.500;2023-02-15T18:21:52;14.50;75.00
62363;DHT22;48396;48.426;1.500;2023-02-15T18:24:25;14.50;74.80
62363;DHT22;48396;48.426;1.500;2023-02-15T18:26:52;14.50;74.80
62363;DHT22;48396;48.426;1.500;2023-02-15T18:29:18;14.40;74.80
62363;DHT22;48396;48.426;1.500;2023-02-15T18:31:48;14.30;75.40
62363;DHT22;48396;48.426;1.500;2023-02-15T18:34:35;14.30;75.30
62363;DHT22;48396;48.426;1.500;2023-02-15T18:37:05;14.20;75.50
62363;DHT22;48396;48.426;1.500;2023-02-15T18:39:39;14.20;75.20
62363;DHT22;48396;48.426;1.500;2023-02-15T18:42:32;14.20;75.20
62363;DHT22;48396;48.426;1.500;2023-02-15T18:45:06;14.10;75.60
62363;DHT22;48396;48.426;1.500;2023-02-15T18:47:36;14.10;75.40
62363;DHT22;48396;48.426;1.500;2023-02-15T18:50:02;14.10;75.40
62363;DHT22;48396;48.426;1.500;2023-02-15T18:52:32;14.10;75.40
62363;DHT22;48396;48.426;1.500;2023-02-15T18:55:00;14.10;75.40
62363;DHT22;48396;48.426;1.500;2023-02-15T18:57:27;14.10;75.20
62363;DHT22;48396;48.426;1.500;2023-02-15T18:59:53;14.20;74.90
62363;DHT22;48396;48.426;1.500;2023-02-15T19:02:19;14.30;74.70
62363;DHT22;48396;48.426;1.500;2023-02-15T19:04:45;14.20;74.60
62363;DHT22;48396;48.426;1.500;2023-02-15T19:07:19;14.20;74.70
62363;DHT22;48396;48.426;1.500;2023-02-15T19:09:49;14.10;74.80
62363;DHT22;48396;48.426;1.500;2023-02-15T19:12:16;14.10;74.80
62363;DHT22;48396;48.426;1.500;2023-02-15T19:14:44;13.90;75.10
62363;DHT22;48396;48.426;1.500;2023-02-15T19:17:16;13.90;75.30
62363;DHT22;48396;48.426;1.500;2023-02-15T19:19:43;13.90;75.30
62363;DHT22;48396;48.426;1.500;2023-02-15T19:22:20;13.90;75.30
62363;DHT22;48396;48.426;1.500;2023-02-15T19:24:47;13.90;75.30
62363;DHT22;48396;48.426;1.500;2023-02-15T19:27:29;13.80;75.50